createdAt,value
2023-05-19T00:02:05.894Z,41.25
2023-05-19T00:04:33.593Z,41.32
2023-05-19T00:07:01.317Z,41.23
2023-05-19T00:09:28.335Z,41.26
2023-05-19T00:11:56.630Z,41.14
2023-05-19T00:14:23.461Z,41.20
2023-05-19T00:16:50.357Z,41.02
2023-05-19T00:19:17.688Z,40.99
2023-05-19T00:21:44.395Z,41.09
2023-05-19T00:24:11.010Z,41.00
2023-05-19T00:26:37.954Z,41.08
2023-05-19T00:29:06.615Z,41.22
2023-05-19T00:31:34.135Z,40.99
2023-05-19T00:34:01.041Z,41.03
2023-05-19T00:36:27.693Z,41.02
2023-05-19T00:38:58.205Z,41.02
2023-05-19T00:41:24.892Z,41.06
2023-05-19T00:43:51.540Z,40.85
2023-05-19T00:46:19.475Z,40.86
2023-05-19T00:48:46.219Z,40.89
2023-05-19T00:51:16.770Z,40.89
2023-05-19T00:53:48.959Z,40.97
2023-05-19T00:56:16.679Z,40.80
2023-05-19T00:58:44.222Z,40.90
2023-05-19T01:01:12.082Z,40.82
2023-05-19T01:03:40.806Z,40.87
2023-05-19T01:06:07.832Z,40.72
2023-05-19T01:08:37.194Z,40.72
2023-05-19T01:11:05.493Z,40.81
2023-05-19T01:13:32.875Z,40.64
2023-05-19T01:16:10.104Z,40.63
2023-05-19T01:18:58.242Z,40.56
2023-05-19T01:21:36.341Z,40.66
2023-05-19T01:24:23.074Z,40.47
2023-05-19T01:27:12.303Z,40.72
2023-05-19T01:29:54.877Z,40.56
2023-05-19T01:34:49.746Z,40.60
2023-05-19T01:37:17.720Z,40.51
2023-05-19T01:39:46.440Z,40.56
2023-05-19T01:42:15.142Z,40.37
2023-05-19T01:44:42.257Z,40.58
2023-05-19T01:47:09.833Z,40.33
2023-05-19T01:49:36.468Z,40.46
2023-05-19T01:52:04.056Z,40.39
2023-05-19T01:54:30.593Z,40.43
2023-05-19T01:57:25.072Z,40.42
2023-05-19T02:00:05.678Z,40.42
2023-05-19T02:02:54.387Z,40.45
2023-05-19T02:05:38.344Z,40.37
2023-05-19T02:10:37.286Z,40.43
2023-05-19T02:13:06.780Z,40.19
2023-05-19T02:15:42.211Z,40.37
2023-05-19T02:18:12.521Z,40.30
2023-05-19T02:20:39.992Z,40.30
2023-05-19T02:23:07.106Z,40.18
2023-05-19T02:25:33.889Z,40.28
2023-05-19T02:28:00.552Z,40.28
2023-05-19T02:30:32.623Z,40.17
2023-05-19T02:33:00.400Z,40.13
2023-05-19T02:35:27.897Z,40.31
2023-05-19T02:37:54.543Z,40.11
2023-05-19T02:40:21.888Z,40.07
2023-05-19T02:42:49.426Z,39.99
2023-05-19T02:45:16.271Z,40.18
2023-05-19T02:47:43.006Z,40.07
2023-05-19T02:50:09.666Z,39.94
2023-05-19T02:52:36.354Z,40.00
2023-05-19T02:55:02.956Z,39.97
2023-05-19T02:57:31.513Z,39.94
2023-05-19T02:59:58.152Z,40.18
2023-05-19T03:02:24.813Z,40.16
2023-05-19T03:04:51.573Z,40.08
2023-05-19T03:07:18.233Z,40.10
2023-05-19T03:09:44.744Z,40.06
2023-05-19T03:12:11.329Z,39.70
2023-05-19T03:14:38.745Z,39.97
2023-05-19T03:17:08.002Z,39.93
2023-05-19T03:19:34.754Z,39.91
2023-05-19T03:22:01.369Z,39.81
2023-05-19T03:24:28.342Z,39.89
2023-05-19T03:26:55.764Z,39.82
2023-05-19T03:29:22.516Z,39.81
2023-05-19T03:31:49.315Z,39.71
2023-05-19T03:34:16.629Z,39.85
2023-05-19T03:36:44.995Z,39.90
2023-05-19T03:39:15.356Z,40.02
2023-05-19T03:41:42.397Z,39.75
2023-05-19T03:44:09.011Z,39.93
2023-05-19T03:46:35.770Z,39.73
2023-05-19T03:49:22.660Z,39.89
2023-05-19T03:52:27.952Z,39.88
2023-05-19T03:55:11.727Z,39.75
2023-05-19T03:57:39.457Z,39.69
2023-05-19T04:00:07.025Z,39.85
2023-05-19T04:02:38.922Z,39.66
2023-05-19T04:05:08.503Z,39.87
2023-05-19T04:07:36.971Z,39.87
2023-05-19T04:10:05.393Z,39.70
2023-05-19T04:12:32.969Z,39.48
2023-05-19T04:15:00.196Z,39.55
2023-05-19T04:17:27.519Z,39.74
2023-05-19T04:19:55.213Z,39.62
2023-05-19T04:22:22.466Z,39.52
2023-05-19T04:24:50.544Z,39.72
2023-05-19T04:27:18.210Z,39.76
2023-05-19T04:29:46.058Z,39.65
2023-05-19T04:32:17.611Z,39.59
2023-05-19T04:34:47.228Z,39.69
2023-05-19T04:37:20.406Z,39.65
2023-05-19T04:39:48.224Z,39.64
2023-05-19T04:42:19.146Z,39.53
2023-05-19T04:44:46.444Z,39.65
2023-05-19T04:47:14.897Z,39.57
2023-05-19T04:49:42.055Z,39.85
2023-05-19T04:52:13.039Z,39.58
2023-05-19T04:54:41.739Z,39.84
2023-05-19T04:57:10.481Z,39.84
2023-05-19T04:59:39.490Z,39.93
2023-05-19T05:02:07.926Z,39.79
2023-05-19T05:04:36.729Z,39.86
2023-05-19T05:07:03.317Z,39.73
2023-05-19T05:09:29.930Z,39.88
2023-05-19T05:13:52.816Z,40.19
2023-05-19T05:16:19.770Z,40.59
2023-05-19T05:18:46.949Z,40.41
2023-05-19T05:21:14.430Z,40.64
2023-05-19T05:23:41.300Z,40.53
2023-05-19T05:26:16.823Z,40.48
2023-05-19T05:28:44.496Z,40.67
2023-05-19T05:31:11.448Z,40.58
2023-05-19T05:33:39.449Z,40.49
2023-05-19T05:36:06.656Z,40.44
2023-05-19T05:38:34.052Z,40.47
2023-05-19T05:41:02.613Z,40.48
2023-05-19T05:43:29.995Z,40.45
2023-05-19T05:46:00.730Z,40.48
2023-05-19T05:48:27.861Z,40.49
2023-05-19T05:50:56.900Z,40.52
2023-05-19T05:53:32.161Z,40.53
2023-05-19T05:56:01.068Z,40.40
2023-05-19T05:58:37.728Z,40.36
2023-05-19T06:01:05.430Z,40.33
2023-05-19T06:03:33.528Z,40.29
2023-05-19T06:06:05.415Z,40.31
2023-05-19T06:08:32.165Z,40.35
2023-05-19T06:10:58.923Z,40.23
2023-05-19T06:13:26.694Z,40.58
2023-05-19T06:15:53.477Z,40.75
2023-05-19T06:18:24.957Z,41.09
2023-05-19T06:20:52.696Z,41.11
2023-05-19T06:23:19.276Z,41.25
2023-05-19T06:25:46.105Z,41.14
2023-05-19T06:28:13.642Z,41.23
2023-05-19T06:30:40.393Z,41.20
2023-05-19T06:33:29.102Z,40.94
2023-05-19T06:35:56.717Z,40.93
2023-05-19T06:38:23.347Z,40.88
2023-05-19T06:40:50.470Z,40.88
2023-05-19T06:43:17.079Z,40.95
2023-05-19T06:45:55.121Z,40.70
2023-05-19T06:48:24.314Z,40.49
2023-05-19T06:50:50.927Z,40.62
2023-05-19T06:53:19.877Z,40.63
2023-05-19T06:55:58.068Z,40.70
2023-05-19T06:58:28.283Z,40.36
2023-05-19T07:00:55.797Z,40.49
2023-05-19T07:03:26.048Z,40.54
2023-05-19T07:05:54.317Z,40.54
2023-05-19T07:08:20.896Z,40.33
2023-05-19T07:10:47.789Z,40.33
2023-05-19T07:13:15.794Z,40.20
2023-05-19T07:15:42.588Z,40.21
2023-05-19T07:18:12.198Z,40.36
2023-05-19T07:20:38.887Z,40.16
2023-05-19T07:23:05.412Z,40.19
2023-05-19T07:25:33.218Z,40.39
2023-05-19T07:28:00.122Z,39.97
2023-05-19T07:30:31.686Z,39.89
2023-05-19T07:32:58.504Z,39.97
2023-05-19T07:35:26.213Z,39.80
2023-05-19T07:37:52.981Z,40.01
2023-05-19T07:40:19.728Z,39.89
2023-05-19T07:42:46.390Z,39.91
2023-05-19T07:45:12.965Z,39.69
2023-05-19T07:47:39.579Z,39.78
2023-05-19T07:50:06.847Z,39.79
2023-05-19T07:52:33.461Z,39.67
2023-05-19T07:55:00.031Z,39.67
2023-05-19T07:57:26.684Z,39.73
2023-05-19T07:59:53.238Z,39.62
2023-05-19T08:02:19.884Z,39.73
2023-05-19T08:04:46.526Z,39.48
2023-05-19T08:07:13.186Z,39.53
2023-05-19T08:09:39.710Z,39.76
2023-05-19T08:12:06.404Z,39.59
2023-05-19T08:14:34.765Z,39.48
2023-05-19T08:17:01.370Z,39.46
2023-05-19T08:19:27.971Z,39.48
2023-05-19T08:21:55.713Z,39.54
2023-05-19T08:24:22.221Z,39.43
2023-05-19T08:26:51.790Z,39.41
2023-05-19T08:29:18.362Z,39.47
2023-05-19T08:31:44.992Z,39.50
2023-05-19T08:34:11.809Z,39.42
2023-05-19T08:36:38.956Z,39.35
2023-05-19T08:39:05.846Z,39.31
2023-05-19T08:41:32.840Z,39.45
2023-05-19T08:43:59.560Z,39.29
2023-05-19T08:46:26.915Z,39.24
2023-05-19T08:48:58.777Z,39.17
2023-05-19T08:52:02.335Z,39.21
2023-05-19T08:54:38.208Z,39.15
2023-05-19T08:57:05.726Z,39.29
2023-05-19T08:59:32.612Z,39.17
2023-05-19T09:01:59.712Z,39.22
2023-05-19T09:04:29.978Z,39.16
2023-05-19T09:06:56.920Z,39.19
2023-05-19T09:09:23.493Z,39.28
2023-05-19T09:14:11.420Z,39.12
2023-05-19T09:16:38.987Z,39.29
2023-05-19T09:19:07.234Z,39.14
2023-05-19T09:21:33.925Z,39.12
2023-05-19T09:24:07.953Z,39.13
2023-05-19T09:26:39.176Z,39.15
2023-05-19T09:29:16.979Z,39.02
2023-05-19T09:31:50.614Z,38.96
2023-05-19T09:34:18.904Z,39.13
2023-05-19T09:36:49.599Z,39.02
2023-05-19T09:39:17.795Z,38.98
2023-05-19T09:41:45.438Z,39.04
2023-05-19T09:44:21.166Z,39.13
2023-05-19T09:46:52.752Z,39.04
2023-05-19T09:49:31.225Z,39.06
2023-05-19T09:51:59.659Z,39.02
2023-05-19T09:54:31.175Z,38.97
2023-05-19T09:57:01.399Z,39.06
2023-05-19T09:59:32.120Z,39.00
2023-05-19T10:02:00.650Z,38.83
2023-05-19T10:04:29.359Z,39.13
2023-05-19T10:06:59.610Z,39.11
2023-05-19T10:09:29.160Z,38.98
2023-05-19T10:11:57.961Z,39.05
2023-05-19T10:14:26.931Z,39.07
2023-05-19T10:16:55.577Z,39.09
2023-05-19T10:19:24.247Z,38.97
2023-05-19T10:21:51.731Z,38.83
2023-05-19T10:24:19.224Z,38.96
2023-05-19T10:26:51.219Z,38.74
2023-05-19T10:29:25.490Z,38.99
2023-05-19T10:31:54.162Z,38.88
2023-05-19T10:35:15.659Z,38.93
2023-05-19T10:38:27.191Z,39.02
2023-05-19T10:41:11.646Z,38.83
2023-05-19T10:43:41.203Z,39.03
2023-05-19T10:46:07.737Z,38.81
2023-05-19T10:48:37.797Z,38.67
2023-05-19T10:51:05.186Z,38.72
2023-05-19T10:53:32.849Z,38.78
2023-05-19T10:56:04.894Z,38.70
2023-05-19T10:58:43.663Z,38.70
2023-05-19T11:01:14.419Z,38.72
2023-05-19T11:03:48.127Z,38.59
2023-05-19T11:06:18.844Z,38.58
2023-05-19T11:08:45.423Z,38.48
2023-05-19T11:11:14.270Z,38.62
2023-05-19T11:13:46.832Z,38.67
2023-05-19T11:16:14.068Z,38.59
2023-05-19T11:18:40.963Z,38.54
2023-05-19T11:21:07.695Z,38.57
2023-05-19T11:23:38.708Z,38.71
2023-05-19T11:26:07.990Z,38.49
2023-05-19T11:28:35.266Z,38.42
2023-05-19T11:31:02.526Z,38.37
2023-05-19T11:33:32.483Z,38.38
2023-05-19T11:35:59.297Z,38.36
2023-05-19T11:38:28.141Z,38.52
2023-05-19T11:40:57.522Z,38.40
2023-05-19T11:43:25.224Z,38.34
2023-05-19T11:45:53.344Z,38.39
2023-05-19T11:48:23.719Z,38.35
2023-05-19T11:50:51.017Z,38.34
2023-05-19T11:53:22.280Z,38.35
2023-05-19T11:55:52.031Z,38.26
2023-05-19T11:58:26.755Z,38.37
2023-05-19T12:00:54.154Z,38.23
2023-05-19T12:03:28.109Z,38.13
2023-05-19T12:05:59.138Z,38.20
2023-05-19T12:08:27.186Z,38.30
2023-05-19T12:10:54.088Z,38.25
2023-05-19T12:13:22.788Z,38.31
2023-05-19T12:15:52.218Z,38.33
2023-05-19T12:18:19.322Z,38.29
2023-05-19T12:20:46.354Z,38.38
2023-05-19T12:23:14.371Z,38.31
2023-05-19T12:25:41.152Z,38.25
2023-05-19T12:28:09.802Z,38.10
2023-05-19T12:30:36.867Z,38.36
2023-05-19T12:33:03.869Z,38.15
2023-05-19T12:35:35.984Z,38.25
2023-05-19T12:38:04.635Z,38.19
2023-05-19T12:40:31.800Z,38.18
2023-05-19T12:42:59.308Z,38.28
2023-05-19T12:45:28.122Z,38.15
2023-05-19T12:47:55.010Z,38.05
2023-05-19T12:50:21.674Z,38.15
2023-05-19T12:52:51.799Z,38.16
2023-05-19T12:55:20.544Z,38.06
2023-05-19T12:57:54.663Z,38.06
2023-05-19T13:00:25.791Z,38.21
2023-05-19T13:02:56.329Z,38.04
2023-05-19T13:05:24.863Z,38.23
2023-05-19T13:07:54.511Z,38.10
2023-05-19T13:10:21.353Z,38.16
2023-05-19T13:12:49.846Z,38.22
2023-05-19T13:15:16.557Z,38.19
2023-05-19T13:17:46.478Z,38.28
2023-05-19T13:20:13.446Z,38.25
2023-05-19T13:22:40.337Z,38.13
2023-05-19T13:25:07.604Z,37.98
2023-05-19T13:27:35.289Z,38.08
2023-05-19T13:30:02.478Z,38.11
2023-05-19T13:32:31.936Z,38.08
2023-05-19T13:34:59.228Z,37.98
2023-05-19T13:37:25.871Z,38.19
2023-05-19T13:39:52.678Z,38.07
2023-05-19T13:42:19.435Z,38.08
2023-05-19T13:44:46.690Z,38.09
2023-05-19T13:47:13.556Z,38.09
2023-05-19T13:49:41.324Z,38.01
2023-05-19T13:52:10.278Z,38.16
2023-05-19T13:54:37.147Z,38.08
2023-05-19T13:57:03.880Z,38.10
2023-05-19T13:59:30.851Z,38.14
2023-05-19T14:01:57.736Z,38.06
2023-05-19T14:04:24.473Z,38.03
2023-05-19T14:06:51.140Z,38.15
2023-05-19T14:09:17.809Z,38.08
2023-05-19T14:11:44.426Z,38.18
2023-05-19T14:14:11.591Z,38.14
2023-05-19T14:16:38.805Z,38.17
2023-05-19T14:19:05.665Z,38.11
2023-05-19T14:21:32.658Z,38.07
2023-05-19T14:23:59.559Z,38.12
2023-05-19T14:26:27.523Z,38.15
2023-05-19T14:28:57.026Z,38.09
2023-05-19T14:31:24.226Z,38.38
2023-05-19T14:33:51.444Z,37.81
2023-05-19T14:36:21.053Z,38.32
2023-05-19T14:38:50.037Z,38.29
2023-05-19T14:41:16.625Z,38.28
2023-05-19T14:43:43.275Z,38.22
2023-05-19T14:46:09.980Z,38.22
2023-05-19T14:48:36.656Z,38.36
2023-05-19T14:51:03.313Z,38.23
2023-05-19T14:53:30.079Z,38.26
2023-05-19T14:55:56.635Z,38.41
2023-05-19T14:58:28.712Z,38.45
2023-05-19T15:03:08.204Z,38.37
2023-05-19T15:05:35.102Z,38.31
2023-05-19T15:08:02.043Z,38.43
2023-05-19T15:10:31.909Z,38.42
2023-05-19T15:13:00.249Z,38.34
2023-05-19T15:15:27.199Z,38.47
2023-05-19T15:17:53.853Z,38.27
2023-05-19T15:20:20.483Z,38.39
2023-05-19T15:22:46.992Z,38.44
2023-05-19T15:25:13.596Z,38.46
2023-05-19T15:27:40.113Z,38.47
2023-05-19T15:30:07.177Z,38.60
2023-05-19T15:32:33.878Z,38.55
2023-05-19T15:35:00.685Z,38.57
2023-05-19T15:37:27.550Z,38.64
2023-05-19T15:39:59.281Z,38.55
2023-05-19T15:42:26.276Z,38.67
2023-05-19T15:44:52.807Z,38.63
2023-05-19T15:47:19.485Z,38.51
2023-05-19T15:49:46.061Z,38.49
2023-05-19T15:52:12.687Z,38.69
2023-05-19T15:54:39.237Z,38.52
2023-05-19T15:57:05.970Z,38.77
2023-05-19T15:59:32.519Z,38.55
2023-05-19T16:01:59.254Z,38.62
2023-05-19T16:04:25.873Z,38.59
2023-05-19T16:06:52.484Z,38.67
2023-05-19T16:09:19.243Z,38.58
2023-05-19T16:11:45.814Z,38.69
2023-05-19T16:14:12.470Z,38.63
2023-05-19T16:16:39.141Z,38.70
2023-05-19T16:19:05.952Z,38.75
2023-05-19T16:21:32.628Z,38.81
2023-05-19T16:23:59.258Z,38.79
2023-05-19T16:26:26.316Z,38.89
2023-05-19T16:28:52.868Z,38.86
2023-05-19T16:31:19.539Z,38.99
2023-05-19T16:33:46.281Z,38.80
2023-05-19T16:36:12.948Z,38.96
2023-05-19T16:38:39.523Z,38.94
2023-05-19T16:41:10.799Z,38.96
2023-05-19T16:43:37.547Z,38.96
2023-05-19T16:46:05.226Z,38.94
2023-05-19T16:48:31.931Z,38.86
2023-05-19T16:50:59.298Z,38.87
2023-05-19T16:53:26.018Z,38.89
2023-05-19T16:55:52.586Z,38.95
2023-05-19T16:58:19.291Z,38.95
2023-05-19T17:00:45.932Z,39.20
2023-05-19T17:03:12.850Z,39.36
2023-05-19T17:05:41.898Z,39.10
2023-05-19T17:08:08.984Z,39.18
2023-05-19T17:10:36.004Z,39.30
2023-05-19T17:13:02.762Z,39.41
2023-05-19T17:15:33.890Z,39.31
2023-05-19T17:18:00.801Z,39.30
2023-05-19T17:20:27.439Z,39.38
2023-05-19T17:25:12.324Z,39.41
2023-05-19T17:27:39.224Z,39.49
2023-05-19T17:30:07.005Z,39.51
2023-05-19T17:32:38.628Z,39.51
2023-05-19T17:35:06.707Z,39.65
2023-05-19T17:37:33.385Z,39.73
2023-05-19T17:40:00.143Z,39.54
2023-05-19T17:42:27.298Z,39.96
2023-05-19T17:44:54.147Z,39.92
2023-05-19T17:47:20.990Z,40.03
2023-05-19T17:49:47.903Z,40.21
2023-05-19T17:52:16.650Z,40.60
2023-05-19T17:54:43.510Z,40.81
2023-05-19T18:01:51.314Z,41.18
2023-05-19T18:04:18.596Z,41.41
2023-05-19T18:09:16.914Z,41.67
2023-05-19T18:11:43.962Z,41.62
2023-05-19T18:14:10.779Z,41.65
2023-05-19T18:16:37.888Z,41.74
2023-05-19T18:19:04.526Z,41.91
2023-05-19T18:21:31.353Z,41.81
2023-05-19T18:23:57.989Z,41.69
2023-05-19T18:26:24.576Z,41.81
2023-05-19T18:28:51.097Z,41.73
2023-05-19T18:31:19.883Z,41.81
2023-05-19T18:33:47.156Z,41.88
2023-05-19T18:36:16.294Z,41.94
2023-05-19T18:38:42.892Z,41.94
2023-05-19T18:41:12.500Z,41.85
2023-05-19T18:43:39.113Z,41.94
2023-05-19T18:46:06.262Z,42.14
2023-05-19T18:48:36.060Z,41.97
2023-05-19T18:51:03.754Z,42.19
2023-05-19T18:53:34.801Z,42.33
2023-05-19T18:56:02.936Z,42.43
2023-05-19T18:58:32.592Z,42.45
2023-05-19T19:01:02.083Z,42.47
2023-05-19T19:03:29.670Z,42.37
2023-05-19T19:05:59.721Z,42.59
2023-05-19T19:08:26.514Z,42.38
2023-05-19T19:10:54.648Z,42.52
2023-05-19T19:13:22.456Z,42.34
2023-05-19T19:15:49.058Z,42.43
2023-05-19T19:18:15.871Z,42.54
2023-05-19T19:20:42.901Z,42.36
2023-05-19T19:23:09.610Z,42.42
2023-05-19T19:25:36.412Z,42.55
2023-05-19T19:28:03.628Z,42.52
2023-05-19T19:30:30.300Z,42.54
2023-05-19T19:32:57.111Z,42.51
2023-05-19T19:35:23.713Z,42.74
2023-05-19T19:37:51.694Z,42.59
2023-05-19T19:40:18.214Z,42.72
2023-05-19T19:42:44.824Z,42.65
2023-05-19T19:45:13.949Z,42.68
2023-05-19T19:47:42.255Z,42.53
2023-05-19T19:50:12.302Z,42.58
2023-05-19T19:52:39.838Z,42.44
2023-05-19T19:55:06.923Z,42.40
2023-05-19T19:57:34.198Z,42.51
2023-05-19T20:00:07.818Z,42.44
2023-05-19T20:02:41.052Z,42.25
2023-05-19T20:05:12.865Z,42.19
2023-05-19T20:07:39.480Z,42.39
2023-05-19T20:10:06.636Z,42.25
2023-05-19T20:12:33.192Z,42.40
2023-05-19T20:14:59.796Z,42.21
2023-05-19T20:17:26.390Z,42.33
2023-05-19T20:19:53.084Z,42.61
2023-05-19T20:22:19.617Z,42.31
2023-05-19T20:24:46.552Z,42.35
2023-05-19T20:27:13.217Z,42.40
2023-05-19T20:29:39.927Z,42.49
2023-05-19T20:32:06.807Z,42.39
2023-05-19T20:34:33.571Z,42.35
2023-05-19T20:37:00.539Z,42.33
2023-05-19T20:39:27.162Z,42.24
2023-05-19T20:41:53.740Z,42.19
2023-05-19T20:44:20.616Z,42.26
2023-05-19T20:46:47.385Z,42.23
2023-05-19T20:49:14.025Z,42.19
2023-05-19T20:51:40.629Z,42.11
2023-05-19T20:54:07.328Z,42.13
2023-05-19T20:56:34.216Z,42.16
2023-05-19T20:59:00.901Z,41.99
2023-05-19T21:01:29.699Z,42.25
2023-05-19T21:03:56.473Z,41.92
2023-05-19T21:06:23.074Z,42.08
2023-05-19T21:08:50.215Z,42.00
2023-05-19T21:11:16.816Z,42.08
2023-05-19T21:13:44.133Z,41.82
2023-05-19T21:16:10.679Z,41.96
2023-05-19T21:18:40.018Z,41.90
2023-05-19T21:21:06.637Z,42.00
2023-05-19T21:23:33.229Z,41.99
2023-05-19T21:26:00.271Z,41.79
2023-05-19T21:28:26.903Z,41.88
2023-05-19T21:30:53.609Z,41.81
2023-05-19T21:33:20.688Z,41.83
2023-05-19T21:35:47.336Z,41.69
2023-05-19T21:38:24.029Z,41.90
2023-05-19T21:40:51.914Z,41.96
2023-05-19T21:43:19.406Z,41.72
2023-05-19T21:45:46.035Z,41.64
2023-05-19T21:48:13.169Z,41.68
2023-05-19T21:50:39.845Z,41.74
2023-05-19T21:53:06.554Z,41.67
2023-05-19T21:55:33.405Z,41.82
2023-05-19T21:58:01.695Z,41.69
2023-05-19T22:00:32.464Z,41.56
2023-05-19T22:02:59.313Z,41.47
2023-05-19T22:05:26.502Z,41.54
2023-05-19T22:07:53.109Z,41.58
2023-05-19T22:10:19.762Z,41.51
2023-05-19T22:12:46.351Z,41.70
2023-05-19T22:15:15.959Z,41.50
2023-05-19T22:17:42.704Z,41.47
2023-05-19T22:20:09.720Z,41.64
2023-05-19T22:22:36.592Z,41.55
2023-05-19T22:27:30.658Z,41.65
2023-05-19T22:29:57.378Z,41.34
2023-05-19T22:32:24.201Z,41.33
2023-05-19T22:34:51.103Z,41.29
2023-05-19T22:37:17.781Z,41.40
2023-05-19T22:39:44.533Z,41.40
2023-05-19T22:42:11.164Z,41.31
2023-05-19T22:44:37.771Z,41.49
2023-05-19T22:47:13.272Z,41.37
2023-05-19T22:49:40.842Z,41.41
2023-05-19T22:52:10.409Z,41.25
2023-05-19T22:54:38.170Z,41.43
2023-05-19T22:57:05.105Z,41.29
2023-05-19T22:59:31.770Z,41.45
2023-05-19T23:01:58.336Z,41.28
2023-05-19T23:04:25.003Z,41.18
2023-05-19T23:06:51.730Z,41.29
2023-05-19T23:09:18.621Z,41.15
2023-05-19T23:11:46.000Z,41.04
2023-05-19T23:14:12.600Z,41.03
2023-05-19T23:16:39.212Z,41.08
2023-05-19T23:19:06.065Z,41.02
2023-05-19T23:21:32.800Z,41.03
2023-05-19T23:23:59.975Z,41.21
2023-05-19T23:26:27.000Z,41.17
2023-05-19T23:28:53.674Z,40.95
2023-05-19T23:31:20.357Z,41.12
2023-05-19T23:33:47.027Z,41.01
2023-05-19T23:36:13.688Z,41.11
2023-05-19T23:38:40.326Z,40.98
2023-05-19T23:41:06.972Z,40.93
2023-05-19T23:43:33.722Z,41.11
2023-05-19T23:46:00.977Z,40.95
2023-05-19T23:48:31.247Z,41.08
2023-05-19T23:50:58.613Z,41.06
2023-05-19T23:53:25.612Z,40.94
2023-05-19T23:55:52.386Z,41.13
2023-05-19T23:58:19.020Z,40.87
